Time;durP1;ratioP1;P1;durP2;ratioP2;P2;SDS_P1;SDS_P2;PMS_P1;PMS_P2;Temp;Humidity;BMP_temperature;BMP_pressure;BME280_temperature;BME280_humidity;BME280_pressure;Samples;Min_cycle;Max_cycle;Signal;HPM_P1;HPM_P2
2022/12/31 00:00:07;;;;;;;9.95;3.47;;;19.00;61.30;;;;;;4542511;31;20135;-65
2022/12/31 00:02:33;;;;;;;11.70;3.35;;;19.00;61.20;;;;;;4543823;31;20219;-65
2022/12/31 00:04:59;;;;;;;10.13;3.25;;;19.00;61.30;;;;;;4544000;31;20195;-65
2022/12/31 00:07:25;;;;;;;15.70;4.00;;;19.00;61.30;;;;;;4542027;31;20294;-65
2022/12/31 00:09:51;;;;;;;11.27;3.10;;;19.00;61.30;;;;;;4543764;31;20200;-65
2022/12/31 00:12:17;;;;;;;10.70;3.28;;;19.00;61.30;;;;;;4543304;31;20465;-65
2022/12/31 00:14:47;;;;;;;13.15;3.58;;;19.00;61.40;;;;;;4543854;31;20139;-65
2022/12/31 00:17:12;;;;;;;10.85;3.88;;;18.90;61.30;;;;;;4543469;31;20123;-65
2022/12/31 00:19:42;;;;;;;9.60;3.15;;;18.90;61.30;;;;;;4543945;31;20116;-65
2022/12/31 00:22:08;;;;;;;11.05;3.20;;;18.90;61.40;;;;;;4544982;31;20119;-65
2022/12/31 00:24:34;;;;;;;10.55;3.35;;;18.90;61.40;;;;;;4543303;31;20266;-65
2022/12/31 00:27:01;;;;;;;12.30;2.95;;;18.90;61.30;;;;;;4544864;31;20188;-65
2022/12/31 00:29:27;;;;;;;8.98;3.08;;;18.90;61.30;;;;;;4538546;31;20220;-65
2022/12/31 00:31:52;;;;;;;8.60;2.55;;;18.90;61.40;;;;;;4543756;31;20132;-65
2022/12/31 00:34:18;;;;;;;10.68;2.70;;;18.90;61.40;;;;;;4544455;31;20584;-65
2022/12/31 00:36:44;;;;;;;8.52;2.80;;;18.80;61.40;;;;;;4544708;31;20174;-65
2022/12/31 00:39:10;;;;;;;6.40;2.33;;;18.80;61.40;;;;;;4544764;31;20148;-65
2022/12/31 00:41:36;;;;;;;7.88;2.55;;;18.80;61.40;;;;;;4544655;31;20461;-65
2022/12/31 00:44:03;;;;;;;9.23;2.92;;;18.90;61.50;;;;;;4546067;31;20124;-65
2022/12/31 00:46:30;;;;;;;5.20;2.05;;;18.80;61.40;;;;;;4535024;31;20115;-65
2022/12/31 00:48:56;;;;;;;11.82;2.60;;;18.80;61.40;;;;;;4546936;31;20127;-65
2022/12/31 00:51:27;;;;;;;8.10;2.42;;;18.80;61.50;;;;;;4547692;31;20213;-65
2022/12/31 00:53:55;;;;;;;6.30;2.10;;;18.80;61.50;;;;;;4547962;31;20477;-65
2022/12/31 00:56:24;;;;;;;7.32;2.25;;;18.80;61.60;;;;;;4547960;31;20127;-65
2022/12/31 00:58:51;;;;;;;6.60;2.45;;;18.70;61.50;;;;;;4547472;31;20140;-65
2022/12/31 01:01:35;;;;;;;6.82;2.28;;;18.80;61.60;;;;;;4546533;31;20131;-65
2022/12/31 01:04:06;;;;;;;10.70;2.70;;;18.80;61.60;;;;;;4544268;31;20643;-65
2022/12/31 01:06:32;;;;;;;8.75;2.58;;;18.80;61.60;;;;;;4547584;31;20138;-65
2022/12/31 01:08:58;;;;;;;5.90;2.03;;;18.80;61.60;;;;;;4546584;31;20132;-65
2022/12/31 01:11:28;;;;;;;7.35;2.45;;;18.80;61.60;;;;;;4547403;31;20139;-65
2022/12/31 01:13:56;;;;;;;7.45;2.63;;;18.70;61.50;;;;;;4547376;31;20170;-65
2022/12/31 01:16:45;;;;;;;9.63;2.72;;;18.70;61.50;;;;;;4547154;31;20154;-65
2022/12/31 01:19:24;;;;;;;8.38;2.28;;;18.70;61.60;;;;;;4547529;31;20202;-65
2022/12/31 01:21:51;;;;;;;8.80;2.40;;;18.70;61.60;;;;;;4547029;31;20250;-65
2022/12/31 01:24:18;;;;;;;9.00;2.47;;;18.70;61.60;;;;;;4547033;31;20277;-65
2022/12/31 01:26:44;;;;;;;5.75;1.63;;;18.70;61.60;;;;;;4547288;31;20195;-65
2022/12/31 01:29:12;;;;;;;6.88;2.22;;;18.70;61.60;;;;;;4546908;31;20178;-65
2022/12/31 01:31:39;;;;;;;6.68;2.47;;;18.70;61.60;;;;;;4547392;31;20131;-65
2022/12/31 01:34:08;;;;;;;5.78;1.80;;;18.70;61.60;;;;;;4521842;31;20504;-65
2022/12/31 01:36:35;;;;;;;7.93;2.22;;;18.70;61.60;;;;;;4539219;31;20127;-65
2022/12/31 01:39:04;;;;;;;6.03;2.08;;;18.60;61.60;;;;;;4538422;31;20250;-64
2022/12/31 01:41:36;;;;;;;7.35;1.75;;;18.60;61.60;;;;;;4539591;31;20125;-65
2022/12/31 01:44:11;;;;;;;6.82;2.15;;;18.60;61.60;;;;;;4545977;31;20151;-65
2022/12/31 01:46:39;;;;;;;7.07;2.10;;;18.60;61.60;;;;;;4545254;31;20140;-65
2022/12/31 01:49:39;;;;;;;8.05;2.03;;;18.60;61.70;;;;;;4546114;31;20146;-67
2022/12/31 01:52:24;;;;;;;7.13;2.15;;;18.60;61.60;;;;;;4544547;31;20297;-65
2022/12/31 01:55:07;;;;;;;5.25;1.90;;;18.60;61.70;;;;;;4544938;31;20135;-65
2022/12/31 01:57:35;;;;;;;5.47;2.05;;;18.60;62.60;;;;;;4539581;31;20204;-65
2022/12/31 02:00:01;;;;;;;6.25;1.90;;;18.60;61.70;;;;;;4530851;31;20147;-65
2022/12/31 02:02:28;;;;;;;5.68;1.60;;;18.60;61.70;;;;;;4546206;31;20126;-65
2022/12/31 02:04:57;;;;;;;7.05;1.70;;;18.60;61.80;;;;;;4546584;31;20520;-65
2022/12/31 02:07:23;;;;;;;6.18;1.75;;;18.60;61.80;;;;;;4550583;31;20123;-65
2022/12/31 02:09:49;;;;;;;5.50;1.70;;;18.60;61.80;;;;;;4562881;31;20294;-65
2022/12/31 02:12:16;;;;;;;6.70;1.90;;;18.60;61.80;;;;;;4562523;31;20591;-65
2022/12/31 02:14:46;;;;;;;5.85;1.70;;;18.60;61.80;;;;;;4548178;31;20127;-65
2022/12/31 02:17:37;;;;;;;4.70;1.70;;;18.50;61.80;;;;;;4562708;31;20180;-65
2022/12/31 02:20:28;;;;;;;6.38;2.00;;;18.50;61.90;;;;;;4562591;31;20193;-65
2022/12/31 02:23:28;;;;;;;6.05;1.95;;;18.50;61.90;;;;;;4553065;31;20154;-65
2022/12/31 02:26:03;;;;;;;5.28;1.73;;;18.50;61.80;;;;;;4562570;31;20245;-64
2022/12/31 02:28:51;;;;;;;5.75;1.92;;;18.50;61.90;;;;;;4547874;31;20131;-65
2022/12/31 02:31:32;;;;;;;6.00;1.65;;;18.50;61.90;;;;;;4537576;31;20135;-65
2022/12/31 02:34:10;;;;;;;5.43;1.45;;;18.50;61.90;;;;;;4549103;31;20120;-65
2022/12/31 02:36:41;;;;;;;6.00;1.48;;;18.50;62.00;;;;;;4562665;31;20116;-65
2022/12/31 02:39:09;;;;;;;4.95;1.60;;;18.50;61.90;;;;;;4562542;31;20134;-65
2022/12/31 02:41:48;;;;;;;4.00;1.37;;;18.50;62.00;;;;;;4562253;31;20128;-65
2022/12/31 02:44:27;;;;;;;6.57;2.13;;;18.40;61.90;;;;;;4547580;31;20147;-65
2022/12/31 02:47:04;;;;;;;6.47;1.60;;;18.40;61.90;;;;;;4547994;31;20174;-65
2022/12/31 02:49:55;;;;;;;5.20;1.50;;;18.40;61.90;;;;;;4562408;31;20464;-65
2022/12/31 02:52:30;;;;;;;4.88;1.50;;;18.40;61.90;;;;;;4548025;31;20126;-64
2022/12/31 02:55:30;;;;;;;4.57;1.67;;;18.40;61.90;;;;;;4561797;31;20146;-65
2022/12/31 02:57:59;;;;;;;4.78;1.63;;;18.40;61.90;;;;;;4562164;31;20131;-64
2022/12/31 03:03:11;;;;;;;6.18;1.92;;;18.40;62.00;;;;;;4549323;31;20646;-64
2022/12/31 03:05:40;;;;;;;4.32;1.70;;;18.40;62.00;;;;;;4562091;31;20237;-65
2022/12/31 03:08:07;;;;;;;5.25;1.33;;;18.40;62.00;;;;;;4560625;31;20143;-65
2022/12/31 03:10:33;;;;;;;4.63;1.25;;;18.40;62.00;;;;;;4562235;31;20285;-65
2022/12/31 03:13:00;;;;;;;3.75;1.33;;;18.40;62.00;;;;;;4561785;31;20150;-64
2022/12/31 03:15:28;;;;;;;4.43;1.45;;;18.40;61.90;;;;;;4561779;31;20146;-65
2022/12/31 03:18:07;;;;;;;5.32;1.80;;;18.40;62.00;;;;;;4561975;31;20161;-64
2022/12/31 03:23:32;;;;;;;3.33;1.20;;;18.40;62.00;;;;;;4562096;31;20188;-65
2022/12/31 03:25:59;;;;;;;6.22;1.80;;;18.30;62.00;;;;;;4561744;31;20201;-65
2022/12/31 03:28:29;;;;;;;3.78;1.30;;;18.40;62.00;;;;;;4561538;31;20135;-65
2022/12/31 03:30:57;;;;;;;4.85;1.40;;;18.30;62.10;;;;;;4561817;31;20159;-65
2022/12/31 03:33:28;;;;;;;4.75;1.65;;;18.30;62.00;;;;;;4561346;31;20115;-65
2022/12/31 03:35:55;;;;;;;3.35;1.50;;;18.40;62.10;;;;;;4560924;31;20131;-65
2022/12/31 03:38:22;;;;;;;5.00;1.60;;;18.30;62.10;;;;;;4546157;31;20142;-66
2022/12/31 03:40:50;;;;;;;3.85;1.30;;;18.40;62.10;;;;;;4543711;31;20212;-65
2022/12/31 03:43:18;;;;;;;3.53;1.35;;;18.30;62.10;;;;;;4560864;31;20472;-65
2022/12/31 03:45:47;;;;;;;3.63;1.25;;;18.30;62.10;;;;;;4560909;31;20142;-65
2022/12/31 03:48:13;;;;;;;4.25;1.40;;;18.30;62.10;;;;;;4559461;31;20208;-66
2022/12/31 03:50:39;;;;;;;3.95;1.33;;;18.30;62.10;;;;;;4560350;31;20269;-66
2022/12/31 03:53:06;;;;;;;4.35;1.50;;;18.30;62.10;;;;;;4560768;31;20145;-65
2022/12/31 03:55:32;;;;;;;4.03;1.40;;;18.30;62.10;;;;;;4546123;31;20257;-65
2022/12/31 03:57:58;;;;;;;2.25;1.17;;;18.30;62.20;;;;;;4560932;31;20503;-65
2022/12/31 04:00:24;;;;;;;5.47;1.50;;;18.30;62.20;;;;;;4559428;31;20610;-65
2022/12/31 04:02:50;;;;;;;3.10;1.00;;;18.30;62.20;;;;;;4559571;31;20182;-65
2022/12/31 04:05:18;;;;;;;3.92;1.63;;;18.20;62.10;;;;;;4541551;31;20483;-65
2022/12/31 04:08:16;;;;;;;4.40;1.40;;;18.20;62.20;;;;;;4558513;31;20131;-65
2022/12/31 04:10:42;;;;;;;4.18;1.40;;;18.30;62.20;;;;;;4544347;31;20154;-65
2022/12/31 04:13:08;;;;;;;3.30;1.30;;;18.20;62.20;;;;;;4559928;31;20143;-66
2022/12/31 04:15:34;;;;;;;5.95;1.48;;;18.20;62.20;;;;;;4560695;31;20119;-65
2022/12/31 04:17:59;;;;;;;5.07;1.25;;;18.20;62.20;;;;;;4561022;31;20127;-65
2022/12/31 04:20:27;;;;;;;4.75;1.58;;;18.20;62.30;;;;;;4560422;31;20142;-65
2022/12/31 04:22:53;;;;;;;2.97;1.38;;;18.20;62.20;;;;;;4561221;31;20139;-65
2022/12/31 04:25:19;;;;;;;3.28;1.30;;;18.20;62.20;;;;;;4535283;31;20178;-65
2022/12/31 04:27:48;;;;;;;4.40;1.33;;;18.20;62.20;;;;;;4549948;31;20107;-65
2022/12/31 04:30:14;;;;;;;4.40;1.00;;;18.20;62.20;;;;;;4561162;31;20130;-65
2022/12/31 04:32:41;;;;;;;4.55;1.50;;;18.20;62.30;;;;;;4560698;31;20134;-65
2022/12/31 04:35:07;;;;;;;3.28;1.20;;;18.20;62.20;;;;;;4546805;31;20215;-66
2022/12/31 04:37:38;;;;;;;3.60;1.40;;;18.20;62.20;;;;;;4535307;31;20139;-65
2022/12/31 04:40:05;;;;;;;3.35;1.52;;;18.20;62.30;;;;;;4561046;31;20170;-65
2022/12/31 04:42:31;;;;;;;3.95;1.10;;;18.20;62.30;;;;;;4534742;31;20728;-64
2022/12/31 04:44:58;;;;;;;5.15;1.50;;;18.20;62.40;;;;;;4561074;31;20154;-64
2022/12/31 04:47:24;;;;;;;3.25;1.23;;;18.20;62.30;;;;;;4546504;31;20127;-64
2022/12/31 04:49:50;;;;;;;3.00;1.13;;;18.20;62.40;;;;;;4546065;31;20139;-65
2022/12/31 04:52:16;;;;;;;4.03;1.00;;;18.20;62.40;;;;;;4561102;31;20199;-64
2022/12/31 05:01:00;;;;;;;3.65;1.30;;;18.20;62.40;;;;;;4525268;26;20432;-65
2022/12/31 05:03:27;;;;;;;2.97;1.00;;;18.20;62.50;;;;;;4521474;31;20128;-67
2022/12/31 05:05:53;;;;;;;2.80;1.00;;;18.20;62.60;;;;;;4519613;31;20172;-65
2022/12/31 05:08:19;;;;;;;3.38;1.00;;;18.20;62.60;;;;;;4519538;31;20724;-68
2022/12/31 05:10:47;;;;;;;2.80;0.95;;;18.20;62.60;;;;;;4505733;31;20068;-66
2022/12/31 05:13:15;;;;;;;3.83;1.10;;;18.10;62.50;;;;;;4520143;31;20072;-65
2022/12/31 05:15:41;;;;;;;2.85;1.13;;;18.20;62.50;;;;;;4521231;31;20068;-65
2022/12/31 05:18:07;;;;;;;4.28;1.23;;;18.10;62.50;;;;;;4521305;31;20157;-65
2022/12/31 05:20:34;;;;;;;2.70;0.90;;;18.10;62.50;;;;;;4519317;31;20157;-66
2022/12/31 05:23:00;;;;;;;3.05;1.05;;;18.10;62.60;;;;;;4521202;31;20498;-65
2022/12/31 05:25:26;;;;;;;3.28;1.00;;;18.10;62.50;;;;;;4522397;31;20112;-65
2022/12/31 05:27:52;;;;;;;2.60;0.90;;;18.10;62.50;;;;;;4522834;31;20076;-65
2022/12/31 05:30:18;;;;;;;2.25;0.75;;;18.10;62.60;;;;;;4522715;31;20153;-65
2022/12/31 05:32:45;;;;;;;2.88;0.98;;;18.10;62.60;;;;;;4524738;31;20409;-65
2022/12/31 05:35:11;;;;;;;3.55;1.20;;;18.10;62.60;;;;;;4518413;31;20064;-65
2022/12/31 05:37:37;;;;;;;2.58;0.90;;;18.00;62.50;;;;;;4523371;31;20072;-65
2022/12/31 05:40:04;;;;;;;2.15;0.77;;;18.00;62.50;;;;;;4523605;31;20089;-65
2022/12/31 05:42:30;;;;;;;3.60;1.02;;;18.00;62.60;;;;;;4523970;31;20504;-65
2022/12/31 05:44:55;;;;;;;4.28;1.08;;;18.00;62.60;;;;;;4516480;31;20069;-65
2022/12/31 05:47:22;;;;;;;1.40;0.57;;;18.00;62.60;;;;;;4520872;31;20215;-65
2022/12/31 05:49:53;;;;;;;3.00;1.20;;;18.00;62.50;;;;;;4522391;31;20160;-65
2022/12/31 05:52:20;;;;;;;2.67;0.90;;;18.00;62.60;;;;;;4524179;31;20169;-65
2022/12/31 05:54:47;;;;;;;2.47;0.90;;;18.00;62.50;;;;;;4524024;31;20271;-66
2022/12/31 05:57:13;;;;;;;2.53;1.05;;;18.00;62.60;;;;;;4523492;31;20238;-65
2022/12/31 05:59:39;;;;;;;3.42;1.45;;;18.00;62.60;;;;;;4523521;31;20120;-65
2022/12/31 06:02:09;;;;;;;2.67;0.90;;;18.00;62.60;;;;;;4524433;31;20072;-65
2022/12/31 06:04:35;;;;;;;2.47;1.00;;;18.00;62.60;;;;;;4520275;31;20073;-65
2022/12/31 06:07:01;;;;;;;2.75;1.10;;;18.00;62.70;;;;;;4520361;31;20075;-65
2022/12/31 06:09:33;;;;;;;1.90;0.82;;;18.00;62.60;;;;;;4517950;31;20080;-65
2022/12/31 06:11:59;;;;;;;2.60;0.80;;;18.00;62.70;;;;;;4519379;31;20063;-66
2022/12/31 06:14:25;;;;;;;3.80;0.93;;;18.00;62.70;;;;;;4519163;31;20065;-64
2022/12/31 06:16:50;;;;;;;3.88;0.98;;;18.00;62.70;;;;;;4521821;31;20091;-65
2022/12/31 06:19:17;;;;;;;2.10;0.70;;;18.00;62.70;;;;;;4522634;31;20147;-65
2022/12/31 06:21:42;;;;;;;2.28;0.98;;;18.00;62.70;;;;;;4523641;31;20084;-64
2022/12/31 06:24:08;;;;;;;2.47;0.98;;;18.00;62.70;;;;;;4523609;31;20693;-65
2022/12/31 06:26:35;;;;;;;1.48;0.70;;;17.90;62.70;;;;;;4523638;31;20065;-65
2022/12/31 06:29:01;;;;;;;3.08;1.10;;;18.00;62.80;;;;;;4516810;31;20153;-65
2022/12/31 06:31:27;;;;;;;2.17;1.00;;;18.00;62.80;;;;;;4508880;31;20130;-64
2022/12/31 06:33:53;;;;;;;1.88;0.80;;;17.90;62.70;;;;;;4494596;31;20068;-65
2022/12/31 06:36:20;;;;;;;3.85;0.70;;;17.90;62.70;;;;;;4508831;31;20490;-64
2022/12/31 06:38:47;;;;;;;2.45;0.93;;;17.90;62.70;;;;;;4508606;31;20099;-65
2022/12/31 06:41:14;;;;;;;2.45;0.82;;;18.00;62.70;;;;;;4508672;31;20100;-65
2022/12/31 06:43:41;;;;;;;2.08;0.75;;;17.90;62.70;;;;;;4508688;31;20084;-65
2022/12/31 06:46:10;;;;;;;1.92;0.80;;;17.90;62.70;;;;;;4508864;31;20577;-64
2022/12/31 06:48:36;;;;;;;1.90;0.80;;;17.90;62.70;;;;;;4508545;31;20076;-65
2022/12/31 06:51:05;;;;;;;1.90;0.65;;;17.90;62.70;;;;;;4508635;31;20222;-65
2022/12/31 06:53:32;;;;;;;2.22;0.82;;;17.90;62.70;;;;;;4508525;31;20083;-65
2022/12/31 06:56:08;;;;;;;1.73;0.70;;;17.90;62.70;;;;;;4512959;31;20087;-64
2022/12/31 06:58:34;;;;;;;2.55;0.75;;;17.90;62.70;;;;;;4524298;31;20075;-65
2022/12/31 07:01:38;;;;;;;2.40;0.90;;;17.90;62.70;;;;;;4523777;31;20084;-65
2022/12/31 07:04:29;;;;;;;1.75;0.57;;;17.90;62.70;;;;;;4523954;31;20091;-65
2022/12/31 07:07:07;;;;;;;2.28;0.52;;;17.90;62.70;;;;;;4499305;31;20091;-64
2022/12/31 07:09:59;;;;;;;1.95;0.73;;;17.90;62.70;;;;;;4513276;31;20076;-65
2022/12/31 07:12:33;;;;;;;2.55;0.70;;;17.90;62.70;;;;;;4523997;31;20088;-65
2022/12/31 07:15:39;;;;;;;2.15;0.63;;;17.80;62.70;;;;;;4524195;31;20487;-64
2022/12/31 07:18:21;;;;;;;1.70;0.68;;;17.80;62.70;;;;;;4524137;31;20133;-64
2022/12/31 07:20:47;;;;;;;2.03;0.80;;;17.80;62.70;;;;;;4523842;31;20120;-65
2022/12/31 07:23:13;;;;;;;3.83;0.80;;;17.80;62.70;;;;;;4524006;31;20173;-64
2022/12/31 07:25:47;;;;;;;2.55;0.80;;;17.90;62.80;;;;;;4523449;31;20076;-65
2022/12/31 07:28:58;;;;;;;2.58;0.80;;;17.80;62.80;;;;;;4523639;31;20099;-65
2022/12/31 07:31:41;;;;;;;1.85;0.65;;;17.80;62.80;;;;;;4458509;32;20519;-64
2022/12/31 07:34:24;;;;;;;1.95;0.88;;;17.80;62.80;;;;;;4458886;32;20106;-65
2022/12/31 07:37:02;;;;;;;1.55;0.63;;;17.80;62.90;;;;;;4504490;31;20072;-64
2022/12/31 07:39:46;;;;;;;1.55;0.60;;;17.80;62.90;;;;;;4523681;31;20111;-65
2022/12/31 07:42:37;;;;;;;1.77;0.80;;;17.80;62.90;;;;;;4524035;31;20073;-64
2022/12/31 07:45:38;;;;;;;1.20;0.60;;;17.80;63.00;;;;;;4523576;31;20164;-66
2022/12/31 07:48:19;;;;;;;2.80;0.90;;;17.80;62.90;;;;;;4509166;31;20547;-66
2022/12/31 07:50:46;;;;;;;2.25;0.60;;;17.80;62.90;;;;;;4522968;31;20072;-66
2022/12/31 07:53:32;;;;;;;3.20;0.57;;;17.80;63.00;;;;;;4507896;31;20083;-66
2022/12/31 07:56:00;;;;;;;2.10;0.60;;;17.80;63.10;;;;;;4519670;31;20188;-66
2022/12/31 07:58:39;;;;;;;4.78;0.50;;;17.80;63.20;;;;;;4521496;31;20084;-66
2022/12/31 08:01:18;;;;;;;2.97;0.60;;;17.90;63.30;;;;;;4515800;31;20084;-67
2022/12/31 08:03:50;;;;;;;1.38;0.50;;;18.00;63.20;;;;;;4508968;31;20487;-67
2022/12/31 08:06:25;;;;;;;2.75;0.70;;;18.00;63.00;;;;;;4516138;31;20513;-67
2022/12/31 08:09:30;;;;;;;3.67;0.70;;;18.20;62.80;;;;;;4519364;31;20072;-67
2022/12/31 08:11:59;;;;;;;1.63;0.50;;;18.40;62.50;;;;;;4512845;31;20160;-67
2022/12/31 08:14:27;;;;;;;2.50;0.70;;;18.50;61.90;;;;;;4515991;31;20485;-67
2022/12/31 08:16:54;;;;;;;2.22;0.60;;;18.70;61.60;;;;;;4518852;31;20080;-67
2022/12/31 08:19:26;;;;;;;1.55;0.43;;;18.80;61.10;;;;;;4517467;31;20080;-67
2022/12/31 08:22:10;;;;;;;1.95;0.73;;;19.00;60.80;;;;;;4517996;31;20164;-67
2022/12/31 08:25:01;;;;;;;1.92;0.50;;;19.20;60.50;;;;;;4516032;31;20065;-67
2022/12/31 08:27:45;;;;;;;1.65;0.60;;;19.30;60.00;;;;;;4518975;31;20118;-67
2022/12/31 08:30:14;;;;;;;1.63;0.47;;;19.50;59.80;;;;;;4516658;31;20095;-67
2022/12/31 08:32:44;;;;;;;2.53;0.40;;;19.60;59.50;;;;;;4508573;31;20092;-68
2022/12/31 08:35:54;;;;;;;2.13;0.50;;;19.60;59.30;;;;;;4515820;31;20073;-67
2022/12/31 08:38:28;;;;;;;2.15;0.40;;;19.70;59.20;;;;;;4442220;32;20082;-67
2022/12/31 08:41:10;;;;;;;1.60;0.50;;;19.80;59.10;;;;;;4442578;32;20085;-67
2022/12/31 08:43:36;;;;;;;3.40;0.47;;;19.80;59.00;;;;;;4489286;31;20060;-67
2022/12/31 08:46:06;;;;;;;2.00;0.50;;;19.80;59.00;;;;;;4519107;31;20091;-67
2022/12/31 08:48:40;;;;;;;1.17;0.43;;;19.80;59.00;;;;;;4520801;31;20212;-67
2022/12/31 08:51:12;;;;;;;0.80;0.30;;;19.90;59.10;;;;;;4518711;31;20077;-67
2022/12/31 08:53:38;;;;;;;1.80;0.80;;;19.90;59.10;;;;;;4513408;31;20090;-67
2022/12/31 08:56:24;;;;;;;1.48;0.50;;;19.90;59.00;;;;;;4522887;31;20083;-67
2022/12/31 08:59:12;;;;;;;1.00;0.47;;;19.90;58.90;;;;;;4511375;31;20085;-67
2022/12/31 09:02:10;;;;;;;0.52;0.30;;;19.90;58.90;;;;;;4522093;31;20120;-67
2022/12/31 09:05:03;;;;;;;1.45;0.30;;;19.90;58.90;;;;;;4522891;31;20080;-67
2022/12/31 09:07:46;;;;;;;1.13;0.30;;;19.90;58.80;;;;;;4525827;31;20060;-67
2022/12/31 09:10:32;;;;;;;1.67;0.35;;;20.00;58.80;;;;;;4526174;31;20531;-67
2022/12/31 09:13:22;;;;;;;1.08;0.32;;;20.00;58.70;;;;;;4525920;31;20165;-66
2022/12/31 09:16:08;;;;;;;0.50;0.30;;;20.00;58.70;;;;;;4525639;31;20123;-66
2022/12/31 09:18:39;;;;;;;1.05;0.50;;;20.00;58.70;;;;;;4526083;31;20088;-69
2022/12/31 09:21:05;;;;;;;0.55;0.20;;;20.00;58.70;;;;;;4523832;31;20147;-67
2022/12/31 09:23:31;;;;;;;1.02;0.30;;;20.00;58.70;;;;;;4524236;31;20080;-67
2022/12/31 09:26:30;;;;;;;0.80;0.30;;;20.10;58.80;;;;;;4523612;31;20099;-67
2022/12/31 09:28:55;;;;;;;0.93;0.40;;;20.10;58.80;;;;;;4524879;31;20220;-68
2022/12/31 09:31:39;;;;;;;1.45;0.38;;;20.10;58.80;;;;;;4522873;31;20321;-67
2022/12/31 09:34:46;;;;;;;1.98;0.30;;;20.10;58.80;;;;;;4523303;31;20087;-67
2022/12/31 09:37:45;;;;;;;0.77;0.40;;;20.10;58.80;;;;;;4492520;31;20099;-67
2022/12/31 09:40:20;;;;;;;0.98;0.30;;;20.20;58.90;;;;;;4518251;31;20421;-67
2022/12/31 09:43:16;;;;;;;1.58;0.40;;;20.20;58.90;;;;;;4523277;31;20076;-67
2022/12/31 09:45:52;;;;;;;1.48;0.22;;;20.20;58.90;;;;;;4523028;31;20508;-67
2022/12/31 09:48:40;;;;;;;0.50;0.20;;;20.20;58.90;;;;;;4521386;31;20081;-67
2022/12/31 09:51:11;;;;;;;4.72;0.22;;;20.20;58.90;;;;;;4516682;31;20269;-66
2022/12/31 09:53:58;;;;;;;0.40;0.20;;;20.20;58.90;;;;;;4514278;31;20124;-66
2022/12/31 09:56:34;;;;;;;1.25;0.40;;;20.20;58.90;;;;;;4524725;31;20214;-67
2022/12/31 09:59:24;;;;;;;1.13;0.40;;;20.20;59.00;;;;;;4522425;31;20089;-67
2022/12/31 10:01:56;;;;;;;2.05;0.30;;;20.20;59.00;;;;;;4523579;31;20210;-67
2022/12/31 10:04:52;;;;;;;1.98;0.40;;;20.20;59.00;;;;;;4521570;31;20088;-66
2022/12/31 10:07:31;;;;;;;0.90;0.43;;;20.20;59.10;;;;;;4522090;31;20226;-67
2022/12/31 10:10:17;;;;;;;4.07;0.68;;;20.20;59.20;;;;;;4514879;31;20156;-66
2022/12/31 10:13:02;;;;;;;1.30;0.35;;;20.20;59.30;;;;;;4521483;31;20084;-67
2022/12/31 10:15:49;;;;;;;3.13;0.30;;;20.20;60.30;;;;;;4523323;31;20120;-67
2022/12/31 10:18:28;;;;;;;5.72;0.60;;;20.20;59.40;;;;;;4522666;31;20484;-67
2022/12/31 10:21:31;;;;;;;1.15;0.35;;;20.20;59.40;;;;;;4522037;31;20150;-67
2022/12/31 10:24:29;;;;;;;1.38;0.50;;;20.20;59.60;;;;;;4521659;31;20162;-67
2022/12/31 10:27:06;;;;;;;3.03;0.70;;;20.20;59.70;;;;;;4517619;31;20292;-67
2022/12/31 10:29:58;;;;;;;2.22;0.40;;;20.20;59.80;;;;;;4519058;31;20096;-67
2022/12/31 10:32:58;;;;;;;1.90;0.57;;;20.20;59.90;;;;;;4515163;31;20092;-67
2022/12/31 10:35:30;;;;;;;4.00;0.70;;;20.20;59.90;;;;;;4520493;31;20088;-67
2022/12/31 10:38:25;;;;;;;2.30;0.60;;;20.20;60.00;;;;;;4520215;31;20064;-67
2022/12/31 10:41:13;;;;;;;2.58;0.70;;;20.20;60.00;;;;;;4506021;31;20064;-67
2022/12/31 10:44:09;;;;;;;2.78;0.70;;;20.20;60.10;;;;;;4518587;31;20076;-67
2022/12/31 10:46:54;;;;;;;2.42;0.70;;;20.20;60.10;;;;;;4519007;31;20150;-67
2022/12/31 10:49:57;;;;;;;1.85;0.60;;;20.20;60.10;;;;;;4514460;31;20501;-67
2022/12/31 10:52:32;;;;;;;1.60;0.55;;;20.20;60.10;;;;;;4520017;31;20079;-67
2022/12/31 10:55:16;;;;;;;2.90;0.70;;;20.20;60.20;;;;;;4521017;31;20112;-69
2022/12/31 10:57:59;;;;;;;1.35;0.52;;;20.20;60.20;;;;;;4524790;31;20096;-68
2022/12/31 11:00:32;;;;;;;1.25;0.52;;;20.20;60.20;;;;;;4523850;31;20151;-67
2022/12/31 11:03:57;;;;;;;2.42;0.75;;;20.20;60.20;;;;;;4524377;31;20169;-67
2022/12/31 11:06:42;;;;;;;2.97;0.90;;;20.20;60.30;;;;;;4471788;31;20200;-69
2022/12/31 11:09:27;;;;;;;2.42;0.60;;;20.30;60.30;;;;;;4504846;31;20099;-68
2022/12/31 11:12:27;;;;;;;4.22;0.90;;;20.30;60.20;;;;;;4523640;31;20095;-67
2022/12/31 11:15:10;;;;;;;3.65;0.98;;;20.30;60.20;;;;;;4521879;31;20084;-67
2022/12/31 11:17:57;;;;;;;2.50;0.70;;;20.30;60.10;;;;;;4521772;31;20123;-67
2022/12/31 11:20:26;;;;;;;3.17;0.90;;;20.30;60.20;;;;;;4522979;31;20080;-67
2022/12/31 11:23:06;;;;;;;2.10;0.90;;;20.30;60.20;;;;;;4522831;31;20077;-66
2022/12/31 11:25:39;;;;;;;4.20;0.88;;;20.30;60.20;;;;;;4520731;31;20076;-66
2022/12/31 11:28:19;;;;;;;3.90;1.02;;;20.30;60.30;;;;;;4520124;31;20068;-67
2022/12/31 11:31:06;;;;;;;2.80;1.10;;;20.30;60.20;;;;;;4522865;31;20068;-67
2022/12/31 11:33:54;;;;;;;5.95;0.90;;;20.30;60.30;;;;;;4519990;31;20093;-67
2022/12/31 11:37:04;;;;;;;3.38;1.08;;;20.30;60.30;;;;;;4518575;31;20092;-67
2022/12/31 11:40:04;;;;;;;3.45;1.10;;;20.30;60.40;;;;;;4471541;32;20073;-67
2022/12/31 11:42:48;;;;;;;3.88;0.85;;;20.30;60.40;;;;;;4471872;32;20069;-66
2022/12/31 11:45:21;;;;;;;;;;;20.30;60.50;;;;;;4514710;31;20077;-67
2022/12/31 11:48:27;;;;;;;7.32;1.20;;;20.30;60.50;;;;;;4522100;31;19988;-66
2022/12/31 11:51:14;;;;;;;4.10;1.05;;;20.30;60.60;;;;;;4519458;31;20076;-67
2022/12/31 11:54:23;;;;;;;5.07;1.17;;;20.30;60.60;;;;;;4518986;31;20164;-66
2022/12/31 11:57:30;;;;;;;3.88;1.05;;;20.30;60.60;;;;;;4491242;31;20099;-67
2022/12/31 12:00:00;;;;;;;2.55;0.90;;;20.30;60.70;;;;;;4518860;31;20083;-68
2022/12/31 12:02:33;;;;;;;4.53;1.10;;;20.30;60.70;;;;;;4520185;31;20061;-66
2022/12/31 12:05:02;;;;;;;4.25;1.02;;;20.30;60.70;;;;;;4521617;31;20088;-66
2022/12/31 12:07:30;;;;;;;3.10;1.15;;;20.30;60.80;;;;;;4521397;31;20174;-66
2022/12/31 12:09:57;;;;;;;5.18;1.42;;;20.30;60.80;;;;;;4521851;31;20084;-68
2022/12/31 12:12:23;;;;;;;3.13;1.20;;;20.30;60.90;;;;;;4521487;31;20505;-67
2022/12/31 12:14:53;;;;;;;3.78;1.10;;;20.30;61.00;;;;;;4520455;31;20285;-67
2022/12/31 12:17:31;;;;;;;4.82;1.10;;;20.20;61.00;;;;;;4520812;31;20072;-69
2022/12/31 12:20:15;;;;;;;4.18;1.20;;;20.20;61.00;;;;;;4520814;31;20096;-67
2022/12/31 12:22:49;;;;;;;3.50;1.00;;;20.20;61.10;;;;;;4519375;31;20170;-66
2022/12/31 12:25:21;;;;;;;5.40;1.30;;;20.20;61.10;;;;;;4521766;31;20149;-67
2022/12/31 12:27:47;;;;;;;4.47;1.00;;;20.20;61.20;;;;;;4521020;31;20072;-66
2022/12/31 12:30:26;;;;;;;4.85;1.23;;;20.20;61.20;;;;;;4521616;31;20255;-67
2022/12/31 12:32:55;;;;;;;4.22;1.15;;;20.20;61.20;;;;;;4519129;31;20504;-67
2022/12/31 12:35:30;;;;;;;4.32;1.17;;;20.20;61.30;;;;;;4521267;31;20068;-67
2022/12/31 12:38:12;;;;;;;4.80;1.20;;;20.20;61.30;;;;;;4517589;31;20092;-67
2022/12/31 12:40:39;;;;;;;3.40;1.17;;;20.20;61.30;;;;;;4517879;31;20127;-66
2022/12/31 12:43:05;;;;;;;7.03;1.42;;;20.20;61.40;;;;;;4520205;31;20080;-66
2022/12/31 12:45:46;;;;;;;5.55;1.60;;;20.20;61.30;;;;;;4524516;31;20072;-68
2022/12/31 12:48:20;;;;;;;7.43;1.88;;;20.20;61.40;;;;;;4514583;31;20100;-67
2022/12/31 12:50:47;;;;;;;4.32;1.20;;;20.20;61.90;;;;;;4520920;31;20080;-68
2022/12/31 12:53:41;;;;;;;7.32;1.10;;;20.20;61.80;;;;;;4521572;31;20167;-67
2022/12/31 12:56:22;;;;;;;5.13;1.38;;;20.20;61.80;;;;;;4522514;31;20064;-67
2022/12/31 12:59:22;;;;;;;6.95;1.27;;;20.20;61.70;;;;;;4522905;31;20580;-67
2022/12/31 13:02:11;;;;;;;6.30;1.27;;;20.20;61.70;;;;;;4501997;31;20218;-66
2022/12/31 13:04:58;;;;;;;3.95;1.17;;;20.20;61.70;;;;;;4523025;31;20065;-67
2022/12/31 13:07:33;;;;;;;10.93;1.55;;;20.20;61.70;;;;;;4522711;31;20158;-67
2022/12/31 13:10:27;;;;;;;4.25;1.30;;;20.20;61.60;;;;;;4522740;31;20300;-67
2022/12/31 13:13:06;;;;;;;4.32;1.38;;;20.20;61.60;;;;;;4521199;31;20060;-67
2022/12/31 13:15:42;;;;;;;6.22;1.40;;;20.30;61.70;;;;;;4523835;31;20091;-68
2022/12/31 13:18:17;;;;;;;3.95;0.93;;;20.30;61.70;;;;;;4523876;31;20134;-67
2022/12/31 13:20:49;;;;;;;3.85;1.20;;;20.30;61.60;;;;;;4509777;31;20076;-67
2022/12/31 13:23:26;;;;;;;4.53;1.30;;;20.30;61.60;;;;;;4524691;31;20141;-67
2022/12/31 13:26:15;;;;;;;3.10;0.98;;;20.30;61.60;;;;;;4520999;31;20100;-67
2022/12/31 13:28:44;;;;;;;3.50;1.02;;;20.30;61.60;;;;;;4521668;31;20230;-67
2022/12/31 13:31:35;;;;;;;4.38;1.40;;;20.30;61.60;;;;;;4522144;31;20080;-67
2022/12/31 13:34:23;;;;;;;6.68;1.77;;;20.30;61.60;;;;;;4516032;31;20168;-67
2022/12/31 13:36:51;;;;;;;6.10;1.67;;;20.30;61.60;;;;;;4523876;31;20086;-67
2022/12/31 13:39:39;;;;;;;6.35;1.70;;;20.30;61.70;;;;;;4509987;31;20090;-67